createdAt,value
2023-02-09T00:01:08.777Z,1.11
2023-02-09T00:03:37.452Z,1.10
2023-02-09T00:06:07.086Z,1.10
2023-02-09T00:08:35.255Z,1.08
2023-02-09T00:11:07.419Z,1.04
2023-02-09T00:13:35.886Z,1.02
2023-02-09T00:16:03.552Z,0.99
2023-02-09T00:18:35.927Z,0.93
2023-02-09T00:21:07.725Z,0.91
2023-02-09T00:23:37.203Z,0.85
2023-02-09T00:26:07.289Z,0.80
2023-02-09T00:28:34.241Z,0.79
2023-02-09T00:31:06.799Z,0.78
2023-02-09T00:33:33.880Z,0.76
2023-02-09T00:36:03.045Z,0.74
2023-02-09T00:38:32.972Z,0.73
2023-02-09T00:40:59.976Z,0.69
2023-02-09T00:43:27.254Z,0.64
2023-02-09T00:45:55.482Z,0.61
2023-02-09T00:48:23.199Z,0.61
2023-02-09T00:50:50.488Z,0.58
2023-02-09T00:53:20.424Z,0.56
2023-02-09T00:55:49.418Z,0.55
2023-02-09T00:58:17.758Z,0.51
2023-02-09T01:00:45.258Z,0.47
2023-02-09T01:03:15.482Z,0.42
2023-02-09T01:05:45.474Z,0.38
2023-02-09T01:08:12.320Z,0.37
2023-02-09T01:10:39.384Z,0.32
2023-02-09T01:13:09.091Z,0.30
2023-02-09T01:15:38.637Z,0.27
2023-02-09T01:18:05.523Z,0.26
2023-02-09T01:20:32.268Z,0.22
2023-02-09T01:22:59.456Z,0.21
2023-02-09T01:25:26.206Z,0.22
2023-02-09T01:27:53.000Z,0.19
2023-02-09T01:30:21.120Z,0.17
2023-02-09T01:32:47.985Z,0.13
2023-02-09T01:35:14.715Z,0.11
2023-02-09T01:37:41.593Z,0.09
2023-02-09T01:40:10.238Z,0.08
2023-02-09T01:42:37.436Z,0.06
2023-02-09T01:45:20.057Z,0.04
2023-02-09T01:47:54.006Z,0.01
2023-02-09T01:50:21.321Z,-0.02
2023-02-09T01:52:49.213Z,-0.05
2023-02-09T01:55:21.258Z,-0.11
2023-02-09T01:57:50.684Z,-0.15
2023-02-09T02:00:19.992Z,-0.19
2023-02-09T02:02:52.831Z,-0.20
2023-02-09T02:05:20.778Z,-0.20
2023-02-09T02:07:54.643Z,-0.22
2023-02-09T02:10:21.786Z,-0.27
2023-02-09T02:12:48.880Z,-0.28
2023-02-09T02:15:15.631Z,-0.30
2023-02-09T02:17:58.862Z,-0.30
2023-02-09T02:20:52.531Z,-0.31
2023-02-09T02:23:29.755Z,-0.33
2023-02-09T02:26:29.883Z,-0.40
2023-02-09T02:29:50.142Z,-0.42
2023-02-09T02:32:32.984Z,-0.45
2023-02-09T02:35:05.288Z,-0.47
2023-02-09T02:37:49.287Z,-0.49
2023-02-09T02:40:27.938Z,-0.49
2023-02-09T02:42:58.764Z,-0.52
2023-02-09T02:45:33.787Z,-0.53
2023-02-09T02:48:11.116Z,-0.51
2023-02-09T02:50:43.904Z,-0.51
2023-02-09T02:53:12.196Z,-0.50
2023-02-09T02:55:39.559Z,-0.49
2023-02-09T02:58:09.444Z,-0.49
2023-02-09T03:00:41.077Z,-0.48
2023-02-09T03:03:13.840Z,-0.49
2023-02-09T03:05:42.748Z,-0.50
2023-02-09T03:08:09.512Z,-0.50
2023-02-09T03:10:38.305Z,-0.49
2023-02-09T03:13:12.748Z,-0.49
2023-02-09T03:15:50.115Z,-0.49
2023-02-09T03:18:26.919Z,-0.51
2023-02-09T03:20:59.158Z,-0.49
2023-02-09T03:23:33.895Z,-0.48
2023-02-09T03:26:08.119Z,-0.47
2023-02-09T03:28:39.495Z,-0.45
2023-02-09T03:31:08.206Z,-0.44
2023-02-09T03:33:38.222Z,-0.43
2023-02-09T03:36:09.776Z,-0.41
2023-02-09T03:38:36.506Z,-0.38
2023-02-09T03:41:03.438Z,-0.36
2023-02-09T03:43:48.763Z,-0.35
2023-02-09T03:46:15.722Z,-0.34
2023-02-09T03:48:43.862Z,-0.32
2023-02-09T03:51:10.938Z,-0.32
2023-02-09T03:53:37.669Z,-0.30
2023-02-09T03:56:07.806Z,-0.29
2023-02-09T03:58:36.095Z,-0.28
2023-02-09T04:01:05.422Z,-0.26
2023-02-09T04:03:32.335Z,-0.25
2023-02-09T04:06:00.874Z,-0.24
2023-02-09T04:08:29.645Z,-0.22
2023-02-09T04:10:56.648Z,-0.19
2023-02-09T04:13:23.548Z,-0.19
2023-02-09T04:15:50.416Z,-0.18
2023-02-09T04:18:17.165Z,-0.17
2023-02-09T04:20:44.353Z,-0.14
2023-02-09T04:23:13.138Z,-0.15
2023-02-09T04:25:40.008Z,-0.13
2023-02-09T04:28:07.292Z,-0.12
2023-02-09T04:30:35.790Z,-0.09
2023-02-09T04:33:02.620Z,-0.08
2023-02-09T04:35:29.506Z,-0.06
2023-02-09T04:37:56.234Z,-0.03
2023-02-09T04:40:24.278Z,-0.03
2023-02-09T04:42:50.976Z,-0.01
2023-02-09T04:45:17.758Z,-0.01
2023-02-09T04:47:44.458Z,0.00
2023-02-09T04:50:11.384Z,0.03
2023-02-09T04:52:38.158Z,0.05
2023-02-09T04:55:05.506Z,0.04
2023-02-09T04:57:52.205Z,0.06
2023-02-09T05:00:19.229Z,0.07
2023-02-09T05:02:45.951Z,0.09
2023-02-09T05:05:12.650Z,0.13
2023-02-09T05:07:39.342Z,0.13
2023-02-09T05:10:06.937Z,0.14
2023-02-09T05:12:35.024Z,0.15
2023-02-09T05:15:01.674Z,0.16
2023-02-09T05:17:28.380Z,0.16
2023-02-09T05:19:55.150Z,0.16
2023-02-09T05:22:24.976Z,0.17
2023-02-09T05:24:51.713Z,0.18
2023-02-09T05:27:18.597Z,0.18
2023-02-09T05:29:46.756Z,0.19
2023-02-09T05:32:13.543Z,0.21
2023-02-09T05:34:40.431Z,0.22
2023-02-09T05:37:07.282Z,0.23
2023-02-09T05:39:34.053Z,0.25
2023-02-09T05:42:15.920Z,0.27
2023-02-09T05:44:43.121Z,0.27
2023-02-09T05:47:12.491Z,0.26
2023-02-09T05:49:39.196Z,0.27
2023-02-09T05:52:06.279Z,0.27
2023-02-09T05:54:33.208Z,0.27
2023-02-09T05:57:00.075Z,0.27
2023-02-09T05:59:26.845Z,0.27
2023-02-09T06:01:53.983Z,0.27
2023-02-09T06:04:22.112Z,0.27
2023-02-09T06:06:48.834Z,0.25
2023-02-09T06:09:15.470Z,0.24
2023-02-09T06:11:42.206Z,0.23
2023-02-09T06:14:08.823Z,0.23
2023-02-09T06:16:35.708Z,0.23
2023-02-09T06:19:02.393Z,0.22
2023-02-09T06:21:30.481Z,0.23
2023-02-09T06:23:57.118Z,0.21
2023-02-09T06:26:24.391Z,0.20
2023-02-09T06:28:51.025Z,0.21
2023-02-09T06:31:17.833Z,0.21
2023-02-09T06:33:44.551Z,0.21
2023-02-09T06:36:11.294Z,0.22
2023-02-09T06:38:39.462Z,0.21
2023-02-09T06:41:06.427Z,0.23
2023-02-09T06:43:33.532Z,0.21
2023-02-09T06:46:05.665Z,0.22
2023-02-09T06:48:32.494Z,0.23
2023-02-09T06:50:59.294Z,0.24
2023-02-09T06:53:26.445Z,0.25
2023-02-09T06:55:59.693Z,0.25
2023-02-09T06:58:26.463Z,0.26
2023-02-09T07:00:53.193Z,0.25
2023-02-09T07:03:19.935Z,0.26
2023-02-09T07:05:46.567Z,0.26
2023-02-09T07:08:13.437Z,0.27
2023-02-09T07:10:40.899Z,0.27
2023-02-09T07:13:09.114Z,0.27
2023-02-09T07:15:35.809Z,0.25
2023-02-09T07:18:02.586Z,0.25
2023-02-09T07:20:29.290Z,0.24
2023-02-09T07:22:55.963Z,0.24
2023-02-09T07:25:22.753Z,0.24
2023-02-09T07:27:49.418Z,0.24
2023-02-09T07:30:18.210Z,0.24
2023-02-09T07:32:47.537Z,0.25
2023-02-09T07:35:14.435Z,0.25
2023-02-09T07:37:41.251Z,0.26
2023-02-09T07:40:09.317Z,0.26
2023-02-09T07:42:36.233Z,0.26
2023-02-09T07:45:03.073Z,0.25
2023-02-09T07:47:31.157Z,0.27
2023-02-09T07:49:57.837Z,0.27
2023-02-09T07:52:24.759Z,0.29
2023-02-09T07:54:51.896Z,0.30
2023-02-09T07:57:18.685Z,0.32
2023-02-09T07:59:45.350Z,0.34
2023-02-09T08:02:18.782Z,0.35
2023-02-09T08:04:46.984Z,0.37
2023-02-09T08:07:13.731Z,0.37
2023-02-09T08:09:40.409Z,0.41
2023-02-09T08:12:08.196Z,0.42
2023-02-09T08:14:41.657Z,0.45
2023-02-09T08:17:21.093Z,0.46
2023-02-09T08:19:52.891Z,0.49
2023-02-09T08:22:20.674Z,0.51
2023-02-09T08:24:48.662Z,0.54
2023-02-09T08:27:15.561Z,0.56
2023-02-09T08:29:42.565Z,0.57
2023-02-09T08:32:09.266Z,0.60
2023-02-09T08:34:35.952Z,0.63
2023-02-09T08:37:03.993Z,0.64
2023-02-09T08:39:30.771Z,0.66
2023-02-09T08:41:57.488Z,0.69
2023-02-09T08:44:24.170Z,0.71
2023-02-09T08:46:51.133Z,0.74
2023-02-09T08:49:18.073Z,0.79
2023-02-09T08:51:44.797Z,0.83
2023-02-09T08:54:12.865Z,0.85
2023-02-09T08:56:39.644Z,0.89
2023-02-09T08:59:06.344Z,0.92
2023-02-09T09:01:33.219Z,0.94
2023-02-09T09:04:00.017Z,0.98
2023-02-09T09:06:27.451Z,1.02
2023-02-09T09:08:54.157Z,1.03
2023-02-09T09:11:22.386Z,1.08
2023-02-09T09:13:49.759Z,1.11
2023-02-09T09:16:18.901Z,1.16
2023-02-09T09:18:45.825Z,1.20
2023-02-09T09:21:13.619Z,1.22
2023-02-09T09:23:40.459Z,1.26
2023-02-09T09:26:07.306Z,1.30
2023-02-09T09:28:35.693Z,1.35
2023-02-09T09:31:07.572Z,1.39
2023-02-09T09:48:54.300Z,1.58
2023-02-09T09:51:34.507Z,1.63
2023-02-09T09:54:03.455Z,1.67
2023-02-09T09:56:32.264Z,1.72
2023-02-09T09:58:59.575Z,1.77
2023-02-09T10:01:28.785Z,1.81
2023-02-09T10:04:00.922Z,1.86
2023-02-09T10:06:31.077Z,1.89
2023-02-09T10:09:03.847Z,1.94
2023-02-09T10:11:35.966Z,1.96
2023-02-09T10:14:02.700Z,2.00
2023-02-09T10:16:34.347Z,2.03
2023-02-09T10:19:05.344Z,2.08
2023-02-09T10:21:35.970Z,2.10
2023-02-09T10:24:15.375Z,2.15
2023-02-09T10:26:43.077Z,2.17
2023-02-09T10:29:24.206Z,2.20
2023-02-09T10:31:55.580Z,2.23
2023-02-09T10:34:31.778Z,2.26
2023-02-09T10:37:16.355Z,2.29
2023-02-09T10:39:44.258Z,2.34
2023-02-09T10:42:19.760Z,2.40
2023-02-09T10:44:49.416Z,2.43
2023-02-09T10:47:27.738Z,2.48
2023-02-09T10:49:59.590Z,2.51
2023-02-09T10:52:30.954Z,2.55
2023-02-09T10:55:01.802Z,2.60
2023-02-09T10:57:32.972Z,2.66
2023-02-09T11:00:02.384Z,2.70
2023-02-09T11:02:38.450Z,2.76
2023-02-09T11:05:27.418Z,2.84
2023-02-09T11:07:58.365Z,2.88
2023-02-09T11:10:26.198Z,2.95
2023-02-09T11:12:53.020Z,3.00
2023-02-09T11:15:27.371Z,3.07
2023-02-09T11:18:03.104Z,3.13
2023-02-09T11:20:38.961Z,3.20
2023-02-09T11:23:40.917Z,3.26
2023-02-09T11:26:13.786Z,3.32
2023-02-09T11:28:48.579Z,3.38
2023-02-09T11:31:35.718Z,3.44
2023-02-09T11:34:18.309Z,3.50
2023-02-09T11:36:58.476Z,3.54
2023-02-09T11:39:30.982Z,3.61
2023-02-09T11:42:21.852Z,3.65
2023-02-09T11:44:55.472Z,3.71
2023-02-09T11:47:28.863Z,3.75
2023-02-09T11:49:58.410Z,3.77
2023-02-09T11:52:31.904Z,3.80
2023-02-09T11:55:02.984Z,3.82
2023-02-09T11:57:36.095Z,3.86
2023-02-09T12:00:07.138Z,3.89
2023-02-09T12:02:46.381Z,3.93
2023-02-09T12:05:17.971Z,3.96
2023-02-09T12:07:57.850Z,4.00
2023-02-09T12:10:29.017Z,4.03
2023-02-09T12:13:02.926Z,4.07
2023-02-09T12:15:39.043Z,4.09
2023-02-09T12:18:12.295Z,4.12
2023-02-09T12:20:50.653Z,4.17
2023-02-09T12:23:26.240Z,4.21
2023-02-09T12:25:59.829Z,4.24
2023-02-09T12:28:43.969Z,4.28
2023-02-09T12:31:16.899Z,4.31
2023-02-09T12:34:11.851Z,4.37
2023-02-09T12:36:58.129Z,4.40
2023-02-09T12:39:29.359Z,4.44
2023-02-09T12:42:26.056Z,4.49
2023-02-09T12:45:00.215Z,4.52
2023-02-09T12:47:57.835Z,4.56
2023-02-09T12:50:34.108Z,4.60
2023-02-09T12:53:44.000Z,4.65
2023-02-09T12:56:33.273Z,4.68
2023-02-09T12:59:19.535Z,4.70
2023-02-09T13:02:13.072Z,4.74
2023-02-09T13:04:49.152Z,4.77
2023-02-09T13:07:24.449Z,4.79
2023-02-09T13:09:52.791Z,4.82
2023-02-09T13:12:30.218Z,4.87
2023-02-09T13:14:56.981Z,4.89
2023-02-09T13:17:38.228Z,4.91
2023-02-09T13:20:22.568Z,4.96
2023-02-09T13:22:58.582Z,5.01
2023-02-09T13:25:30.885Z,5.03
2023-02-09T13:28:10.108Z,5.07
2023-02-09T13:30:37.826Z,5.09
2023-02-09T13:33:16.567Z,5.12
2023-02-09T13:35:57.233Z,5.14
2023-02-09T13:38:30.985Z,5.18
2023-02-09T13:40:58.493Z,5.22
2023-02-09T13:43:30.078Z,5.24
2023-02-09T13:45:58.419Z,5.27
2023-02-09T13:48:26.854Z,5.30
2023-02-09T13:50:56.653Z,5.32
2023-02-09T13:53:25.151Z,5.35
2023-02-09T13:55:54.236Z,5.38
2023-02-09T13:58:24.904Z,5.40
2023-02-09T14:00:56.067Z,5.41
2023-02-09T14:03:25.638Z,5.42
2023-02-09T14:05:58.186Z,5.43
2023-02-09T14:08:26.108Z,5.45
2023-02-09T14:10:55.844Z,5.46
2023-02-09T14:13:28.332Z,5.48
2023-02-09T14:16:08.467Z,5.52
2023-02-09T14:18:50.414Z,5.51
2023-02-09T14:21:23.147Z,5.54
2023-02-09T14:24:12.584Z,5.56
2023-02-09T14:26:45.607Z,5.59
2023-02-09T14:29:17.599Z,5.60
2023-02-09T14:31:49.144Z,5.61
2023-02-09T14:34:30.152Z,5.64
2023-02-09T14:36:59.217Z,5.65
2023-02-09T14:39:26.509Z,5.67
2023-02-09T14:41:58.541Z,5.68
2023-02-09T14:44:25.811Z,5.69
2023-02-09T14:46:55.421Z,5.68
2023-02-09T14:49:22.797Z,5.69
2023-02-09T14:51:52.688Z,5.68
2023-02-09T14:54:25.287Z,5.68
2023-02-09T14:56:54.098Z,5.69
2023-02-09T14:59:21.862Z,5.71
2023-02-09T15:01:52.000Z,5.73
2023-02-09T15:04:20.790Z,5.73
2023-02-09T15:06:54.479Z,5.73
2023-02-09T15:09:25.844Z,5.74
2023-02-09T15:12:04.910Z,5.74
2023-02-09T15:14:34.953Z,5.76
2023-02-09T15:17:04.448Z,5.76
2023-02-09T15:19:32.507Z,5.77
2023-02-09T15:22:07.264Z,5.77
2023-02-09T15:24:34.557Z,5.77
2023-02-09T15:27:03.328Z,5.79
2023-02-09T15:29:30.874Z,5.80
2023-02-09T15:31:57.741Z,5.80
2023-02-09T15:34:24.430Z,5.81
2023-02-09T15:36:52.712Z,5.83
2023-02-09T15:39:23.231Z,5.82
2023-02-09T15:42:08.591Z,5.82
2023-02-09T15:44:53.979Z,5.82
2023-02-09T15:47:39.388Z,5.80
2023-02-09T15:50:06.659Z,5.80
2023-02-09T15:52:34.915Z,5.81
2023-02-09T15:55:02.540Z,5.81
2023-02-09T15:57:29.342Z,5.80
2023-02-09T15:59:56.151Z,5.82
2023-02-09T16:02:23.640Z,5.82
2023-02-09T16:04:50.676Z,5.82
2023-02-09T16:07:23.314Z,5.83
2023-02-09T16:09:51.899Z,5.82
2023-02-09T16:12:21.686Z,5.83
2023-02-09T16:14:48.568Z,5.82
2023-02-09T16:17:15.428Z,5.82
2023-02-09T16:19:42.149Z,5.80
2023-02-09T16:22:08.912Z,5.79
2023-02-09T16:24:39.028Z,5.80
2023-02-09T16:27:16.105Z,5.79
2023-02-09T16:29:42.976Z,5.79
2023-02-09T16:32:16.377Z,5.78
2023-02-09T16:34:43.566Z,5.78
2023-02-09T16:37:14.452Z,5.78
2023-02-09T16:39:41.409Z,5.78
2023-02-09T16:42:12.453Z,5.79
2023-02-09T16:44:39.803Z,5.78
2023-02-09T16:47:17.607Z,5.78
2023-02-09T16:49:48.479Z,5.80
2023-02-09T16:52:17.447Z,5.79
2023-02-09T16:54:47.282Z,5.78
2023-02-09T16:57:17.401Z,5.79
2023-02-09T16:59:44.542Z,5.79
2023-02-09T17:02:36.766Z,5.79
2023-02-09T17:05:18.096Z,5.79
2023-02-09T17:07:54.435Z,5.80
2023-02-09T17:10:24.913Z,5.80
2023-02-09T17:12:53.892Z,5.79
2023-02-09T17:15:30.049Z,5.78
2023-02-09T17:18:01.938Z,5.79
2023-02-09T17:20:32.182Z,5.79
2023-02-09T17:22:58.896Z,5.78
2023-02-09T17:25:26.557Z,5.78
2023-02-09T17:27:54.945Z,5.79
2023-02-09T17:30:21.688Z,5.79
2023-02-09T17:32:58.829Z,5.79
2023-02-09T17:35:48.844Z,5.78
2023-02-09T17:38:21.687Z,5.79
2023-02-09T17:40:48.685Z,5.78
2023-02-09T17:43:16.825Z,5.79
2023-02-09T17:45:47.904Z,5.80
2023-02-09T17:48:18.265Z,5.81
2023-02-09T17:50:46.322Z,5.80
2023-02-09T17:53:16.697Z,5.82
2023-02-09T17:55:45.092Z,5.83
2023-02-09T17:58:13.523Z,5.83
2023-02-09T18:00:42.776Z,5.83
2023-02-09T18:03:13.191Z,5.84
2023-02-09T18:05:41.379Z,5.84
2023-02-09T18:08:08.336Z,5.83
2023-02-09T18:10:35.454Z,5.83
2023-02-09T18:13:02.323Z,5.83
2023-02-09T18:15:30.834Z,5.82
2023-02-09T18:17:58.958Z,5.82
2023-02-09T18:20:27.943Z,5.83
2023-02-09T18:22:55.623Z,5.83
2023-02-09T18:25:26.815Z,5.85
2023-02-09T18:27:54.492Z,5.85
2023-02-09T18:30:23.907Z,5.86
2023-02-09T18:32:50.670Z,5.85
2023-02-09T18:35:20.903Z,5.86
2023-02-09T18:37:48.061Z,5.87
2023-02-09T18:40:15.157Z,5.88
2023-02-09T18:42:46.511Z,5.88
2023-02-09T18:45:14.662Z,5.88
2023-02-09T18:47:43.173Z,5.88
2023-02-09T18:50:11.905Z,5.89
2023-02-09T18:52:48.076Z,5.90
2023-02-09T18:55:15.119Z,5.91
2023-02-09T18:57:41.948Z,5.92
2023-02-09T19:00:09.971Z,5.89
2023-02-09T19:02:36.721Z,5.93
2023-02-09T19:05:04.469Z,5.94
2023-02-09T19:07:32.444Z,5.93
2023-02-09T19:10:00.872Z,5.94
2023-02-09T19:12:28.437Z,5.94
2023-02-09T19:14:55.247Z,5.96
2023-02-09T19:17:22.339Z,5.96
2023-02-09T19:19:49.831Z,5.97
2023-02-09T19:22:18.592Z,5.97
2023-02-09T19:24:47.432Z,5.99
2023-02-09T19:27:17.419Z,5.99
2023-02-09T19:29:45.887Z,5.99
2023-02-09T19:32:14.342Z,5.99
2023-02-09T19:34:43.542Z,6.00
2023-02-09T19:37:12.586Z,5.99
2023-02-09T19:39:41.493Z,5.99
2023-02-09T19:42:09.277Z,5.98
2023-02-09T19:44:42.781Z,5.99
2023-02-09T19:47:10.068Z,5.98
2023-02-09T19:49:36.769Z,5.99
2023-02-09T19:52:04.264Z,5.98
2023-02-09T19:54:31.619Z,5.97
2023-02-09T19:56:59.754Z,5.97
2023-02-09T19:59:26.464Z,5.95
2023-02-09T20:01:58.700Z,5.95
2023-02-09T20:04:25.722Z,5.90
2023-02-09T20:06:52.559Z,5.90
2023-02-09T20:09:19.696Z,5.85
2023-02-09T20:11:46.670Z,5.83
2023-02-09T20:14:13.974Z,5.81
2023-02-09T20:16:42.313Z,5.79
2023-02-09T20:19:11.039Z,5.77
2023-02-09T20:21:38.055Z,5.76
2023-02-09T20:24:09.676Z,5.73
2023-02-09T20:26:38.854Z,5.72
2023-02-09T20:29:06.288Z,5.70
2023-02-09T20:31:36.719Z,5.70
2023-02-09T20:34:05.338Z,5.68
2023-02-09T20:36:38.354Z,5.66
2023-02-09T20:39:07.104Z,5.63
2023-02-09T20:41:34.174Z,5.59
2023-02-09T20:44:19.697Z,5.55
2023-02-09T20:46:55.503Z,5.49
2023-02-09T20:49:24.248Z,5.43
2023-02-09T20:51:54.620Z,5.38
2023-02-09T20:54:21.825Z,5.34
2023-02-09T20:56:48.642Z,5.30
2023-02-09T20:59:15.699Z,5.26
2023-02-09T21:01:44.989Z,5.21
2023-02-09T21:04:11.793Z,5.16
2023-02-09T21:06:39.178Z,5.11
2023-02-09T21:09:08.886Z,5.08
2023-02-09T21:11:36.627Z,5.03
2023-02-09T21:14:03.509Z,4.98
2023-02-09T21:16:31.186Z,4.92
2023-02-09T21:18:58.167Z,4.88
2023-02-09T21:21:27.006Z,4.83
2023-02-09T21:23:54.589Z,4.78
2023-02-09T21:26:24.491Z,4.75
2023-02-09T21:28:56.094Z,4.72
2023-02-09T21:31:25.171Z,4.68
2023-02-09T21:33:52.216Z,4.64
2023-02-09T21:36:19.548Z,4.60
2023-02-09T21:38:46.756Z,4.57
2023-02-09T21:41:38.330Z,4.54
2023-02-09T21:44:09.713Z,4.47
2023-02-09T21:46:36.391Z,4.44
2023-02-09T21:49:03.352Z,4.40
2023-02-09T21:51:30.057Z,4.32
2023-02-09T21:53:57.098Z,4.27
2023-02-09T21:56:23.962Z,4.24
2023-02-09T21:58:50.780Z,4.21
2023-02-09T22:01:18.858Z,4.20
2023-02-09T22:03:49.718Z,4.16
2023-02-09T22:06:16.514Z,4.13
2023-02-09T22:08:43.285Z,4.12
2023-02-09T22:11:10.464Z,4.08
2023-02-09T22:13:37.206Z,4.06
2023-02-09T22:16:07.145Z,4.03
2023-02-09T22:18:36.184Z,4.01
2023-02-09T22:21:07.447Z,3.99
2023-02-09T22:23:34.487Z,3.97
2023-02-09T22:26:01.617Z,3.90
2023-02-09T22:28:29.475Z,3.88
2023-02-09T22:30:56.679Z,3.84
2023-02-09T22:33:23.870Z,3.82
2023-02-09T22:35:51.931Z,3.79
2023-02-09T22:38:18.774Z,3.78
2023-02-09T22:40:45.853Z,3.75
2023-02-09T22:43:12.553Z,3.73
2023-02-09T22:45:39.303Z,3.70
2023-02-09T22:48:06.257Z,3.69
2023-02-09T22:50:33.022Z,3.65
2023-02-09T22:53:01.114Z,3.63
2023-02-09T22:55:27.811Z,3.61
2023-02-09T22:57:54.529Z,3.58
2023-02-09T23:00:21.524Z,3.54
2023-02-09T23:02:48.877Z,3.52
2023-02-09T23:05:15.791Z,3.51
2023-02-09T23:07:45.146Z,3.49
2023-02-09T23:10:15.885Z,3.46
2023-02-09T23:12:42.693Z,3.44
2023-02-09T23:15:10.080Z,3.41
2023-02-09T23:17:36.887Z,3.37
2023-02-09T23:20:04.058Z,3.35
2023-02-09T23:22:30.961Z,3.32
2023-02-09T23:24:58.129Z,3.29
2023-02-09T23:27:27.021Z,3.26
2023-02-09T23:29:54.656Z,3.21
2023-02-09T23:32:21.663Z,3.19
2023-02-09T23:34:48.727Z,3.16
2023-02-09T23:37:19.178Z,3.13
2023-02-09T23:39:55.920Z,3.13
2023-02-09T23:42:22.826Z,3.10
2023-02-09T23:44:51.021Z,3.10
2023-02-09T23:47:18.187Z,3.07
2023-02-09T23:49:44.944Z,3.04
2023-02-09T23:52:12.090Z,3.02
2023-02-09T23:54:38.888Z,3.01
2023-02-09T23:57:05.745Z,3.02
2023-02-09T23:59:32.424Z,3.01
